Gazpromneft East — UBOF4 — position and weather

sailwx.info

Track history (hours):
 
Tides and Currents Weather Stations Pressure Air Temp Water Temp Dewpoint Dewpoint Depression Visibility Wind Speed Wind Dir Waves Ship Positions

Gazpromneft East

Last reported at 2017-Jan-19 06:33 UTC. Time now 2017-Jan-19 06:42 UTC.
Position N 59°53' E 030°13'.

Length 79 m; draft 4 m.

Type: Tanker. MMSI: 273335320.

Date/timePositionNaut miles runAvg speedWind from/ knotsBaromVisibWave heightAir tempDewpointWater temp
2017-Jan-19 06:33N 59°53' E 030°13'2 1.7
2017-Jan-19 05:33N 59°55' E 030°14'0 0.0
2017-Jan-19 04:33N 59°55' E 030°14'0 0.0
2017-Jan-19 03:33N 59°55' E 030°14'0 0.0
2017-Jan-19 02:33N 59°55' E 030°14'0 0.0
2017-Jan-19 01:33N 59°55' E 030°14'0 0.0
2017-Jan-19 00:33N 59°55' E 030°14'0 0.0
2017-Jan-18 23:33N 59°55' E 030°14'0 0.0
2017-Jan-18 22:33N 59°55' E 030°14'0 0.0
2017-Jan-18 21:33N 59°55' E 030°14'0 0.0
2017-Jan-18 20:33N 59°55' E 030°14'0 0.0
2017-Jan-18 19:33N 59°55' E 030°14'0 0.1
2017-Jan-18 18:34N 59°55' E 030°14'2 1.9
2017-Jan-18 17:33N 59°53' E 030°13'0 0.0
2017-Jan-18 16:33N 59°53' E 030°13'0 0.0
2017-Jan-18 15:33N 59°53' E 030°13'6 6.1
2017-Jan-18 14:33N 59°55' E 030°02'8 7.6
2017-Jan-18 13:33N 59°56' E 029°47'0 0.4
2017-Jan-18 12:27N 59°56' E 029°46'0 0.0
2017-Jan-18 09:32N 59°56' E 029°46'0 0.0
2017-Jan-18 08:29N 59°56' E 029°46'0 0.0
2017-Jan-18 07:33N 59°56' E 029°46'0 0.0
2017-Jan-18 06:33N 59°56' E 029°46'0 0.0
2017-Jan-18 05:33N 59°56' E 029°46'0 0.0
2017-Jan-18 03:25N 59°56' E 029°46'0 0.0
2017-Jan-18 02:32N 59°56' E 029°46'0 0.1
2017-Jan-17 23:33N 59°56' E 029°47'6 6.3
2017-Jan-17 22:33N 59°55' E 029°59'7 7.0
2017-Jan-17 21:33N 59°53' E 030°12'1 0.6
2017-Jan-17 20:33N 59°53' E 030°13'0 0.0
2017-Jan-17 19:33N 59°53' E 030°13'0 0.0
2017-Jan-17 18:33N 59°53' E 030°13'0 0.0
2017-Jan-17 17:33N 59°53' E 030°13'0 0.0
2017-Jan-17 16:33N 59°53' E 030°13'0 0.0
2017-Jan-17 15:33N 59°53' E 030°13'0 0.0
2017-Jan-17 14:33N 59°53' E 030°13'0 0.0
2017-Jan-17 13:33N 59°53' E 030°13'0 0.1
2017-Jan-17 12:33N 59°53' E 030°13'0 0.0
2017-Jan-17 11:30N 59°53' E 030°13'0 0.0
2017-Jan-17 10:31N 59°53' E 030°13'0 0.1
2017-Jan-17 09:31N 59°53' E 030°13'0 0.0
2017-Jan-17 08:32N 59°53' E 030°13'3 2.8
2017-Jan-17 07:33N 59°54' E 030°08'9 9.2
2017-Jan-17 06:34N 59°57' E 029°51'2 0.3
2017-Jan-17 00:33N 59°58' E 029°47'7 7.0
2017-Jan-16 23:33N 59°55' E 030°00'6 6.3
2017-Jan-16 22:33N 59°53' E 030°12'1 0.7
2017-Jan-16 21:33N 59°53' E 030°13'0 0.0
2017-Jan-16 20:33N 59°53' E 030°13'0 0.0
2017-Jan-16 19:33N 59°53' E 030°13'0 0.0
2017-Jan-16 18:33N 59°53' E 030°13'0 0.0
2017-Jan-16 17:33N 59°53' E 030°13'0 0.0
2017-Jan-16 16:33N 59°53' E 030°13'0 0.0
2017-Jan-16 15:33N 59°53' E 030°13'0 0.0
2017-Jan-16 14:33N 59°53' E 030°13'1 1.0
2017-Jan-16 13:33N 59°53' E 030°12'0 0.4
2017-Jan-16 12:33N 59°53' E 030°11'0 0.0
2017-Jan-16 11:33N 59°53' E 030°11'0 0.0
2017-Jan-16 10:33N 59°53' E 030°11'0 0.0
2017-Jan-16 09:33N 59°53' E 030°11'1 1.3
2017-Jan-16 08:33N 59°53' E 030°13'0 0.0
2017-Jan-16 07:33N 59°53' E 030°13'0 0.0
2017-Jan-16 06:33N 59°53' E 030°13'0 0.0
2017-Jan-16 05:33N 59°53' E 030°13'0 0.0
2017-Jan-16 04:33N 59°53' E 030°13'0 0.0
2017-Jan-16 03:33N 59°53' E 030°13'0 0.0
2017-Jan-16 02:33N 59°53' E 030°13'0 0.0
2017-Jan-16 01:33N 59°53' E 030°13'0 0.0
2017-Jan-16 00:33N 59°53' E 030°13'0 0.0
2017-Jan-15 23:33N 59°53' E 030°13'0 0.0
2017-Jan-15 22:33N 59°53' E 030°13'0 0.0
2017-Jan-15 21:33N 59°53' E 030°13'0 0.0
2017-Jan-15 20:33N 59°53' E 030°13'0 0.1
2017-Jan-15 19:33N 59°53' E 030°13'0 0.0
2017-Jan-15 18:33N 59°53' E 030°13'0 0.0
2017-Jan-15 17:33N 59°53' E 030°13'0 0.0
2017-Jan-15 16:33N 59°53' E 030°13'0 0.0
2017-Jan-15 15:33N 59°53' E 030°13'0 0.0
2017-Jan-15 14:33N 59°53' E 030°13'0 0.0
2017-Jan-15 13:33N 59°53' E 030°13'0 0.0
2017-Jan-15 12:33N 59°53' E 030°13'0 0.0
2017-Jan-15 11:33N 59°53' E 030°13'1 0.5
2017-Jan-15 10:33N 59°54' E 030°14'0 0.0
2017-Jan-15 09:33N 59°54' E 030°14'0 0.0
2017-Jan-15 08:33N 59°54' E 030°14'0 0.0
2017-Jan-15 07:33N 59°54' E 030°14'0 0.0
2017-Jan-15 06:33N 59°54' E 030°14'0 0.0
2017-Jan-15 05:33N 59°54' E 030°14'0 0.0
2017-Jan-15 04:33N 59°54' E 030°14'0 0.0
2017-Jan-15 03:33N 59°54' E 030°14'0 0.0
2017-Jan-15 02:33N 59°54' E 030°14'0 0.0
2017-Jan-15 01:33N 59°54' E 030°14'0 0.0
2017-Jan-15 00:33N 59°54' E 030°14'1 1.3
2017-Jan-14 23:33N 59°53' E 030°12'1 0.5
2017-Jan-14 22:33N 59°52' E 030°12'0 0.0
2017-Jan-14 21:33N 59°52' E 030°12'0 0.0
2017-Jan-14 20:33N 59°52' E 030°12'0 0.0
2017-Jan-14 19:33N 59°52' E 030°12'0 0.0
2017-Jan-14 18:34N 59°52' E 030°12'1 1.3
2017-Jan-14 17:34N 59°53' E 030°11'8 8.1
2017-Jan-14 16:33N 59°56' E 029°55'5 4.6
2017-Jan-14 15:33N 59°56' E 029°46'0 0.0
2017-Jan-14 14:20N 59°56' E 029°46'0 0.0
2017-Jan-14 13:29N 59°56' E 029°46'0 0.0
2017-Jan-14 12:32N 59°56' E 029°46'0 0.0
2017-Jan-14 11:13N 59°56' E 029°46'1 1.0
2017-Jan-14 10:33N 59°56' E 029°47'7 6.8
2017-Jan-14 09:34N 59°55' E 030°00'7 7.0
2017-Jan-14 08:33N 59°53' E 030°14'0 0.0
2017-Jan-14 07:33N 59°53' E 030°13'0 0.0
2017-Jan-14 06:33N 59°53' E 030°13'0 0.0
2017-Jan-14 05:33N 59°53' E 030°13'0 0.0
2017-Jan-14 04:33N 59°53' E 030°13'0 0.0
2017-Jan-14 03:33N 59°53' E 030°13'1 0.3
2017-Jan-13 23:33N 59°53' E 030°11'0 0.0
2017-Jan-13 22:33N 59°53' E 030°11'0 0.0
2017-Jan-13 21:33N 59°53' E 030°11'0 0.0
2017-Jan-13 20:33N 59°53' E 030°11'0 0.0
2017-Jan-13 19:33N 59°53' E 030°11'0 0.0
2017-Jan-13 18:33N 59°53' E 030°11'0 0.0
2017-Jan-13 17:33N 59°53' E 030°11'0 0.0
2017-Jan-13 16:33N 59°53' E 030°11'0 0.0
2017-Jan-13 15:33N 59°53' E 030°11'0 0.0
2017-Jan-13 14:33N 59°53' E 030°11'1 1.1
2017-Jan-13 13:33N 59°53' E 030°13'0 0.0
2017-Jan-13 12:33N 59°53' E 030°13'0 0.0
2017-Jan-13 11:33N 59°53' E 030°13'0 0.0
2017-Jan-13 10:33N 59°53' E 030°13'0 0.0
2017-Jan-13 09:33N 59°53' E 030°13'0 0.0
2017-Jan-13 08:33N 59°53' E 030°13'0 0.0
2017-Jan-13 07:33N 59°53' E 030°13'0 0.0
2017-Jan-13 06:33N 59°53' E 030°13'0 0.1
2017-Jan-13 05:33N 59°53' E 030°13'4 4.4
2017-Jan-13 04:33N 59°54' E 030°05'8 7.8
2017-Jan-13 03:33N 59°57' E 029°50'24 2.4
2017-Jan-12 17:29N 60°01' E 029°04'3 3.4
2017-Jan-12 16:34N 60°01' E 028°58'5 5.2
2017-Jan-12 15:33N 60°01' E 028°47'1211.8
2017-Jan-12 14:33N 59°53' E 028°30'7 6.5
2017-Jan-12 13:33N 59°47' E 028°25'0 0.0
2017-Jan-12 12:33N 59°47' E 028°25'0 0.0
2017-Jan-12 11:33N 59°47' E 028°25'0 0.0
2017-Jan-12 10:33N 59°47' E 028°25'0 0.0
2017-Jan-12 09:33N 59°47' E 028°25'0 0.0
2017-Jan-12 08:33N 59°47' E 028°25'0 0.0
2017-Jan-12 07:33N 59°47' E 028°25'0 0.0
2017-Jan-12 06:33N 59°47' E 028°25'0 0.0
2017-Jan-12 05:33N 59°47' E 028°25'0 0.0
2017-Jan-12 04:33N 59°47' E 028°25'0 0.0
2017-Jan-12 03:33N 59°47' E 028°25'0 0.0
2017-Jan-12 02:33N 59°47' E 028°25'0 0.0
2017-Jan-12 01:33N 59°47' E 028°25'0 0.0
2017-Jan-12 00:33N 59°47' E 028°25'1 0.5
2017-Jan-11 23:33N 59°47' E 028°24'0 0.0
2017-Jan-11 22:33N 59°47' E 028°24'0 0.0
2017-Jan-11 21:33N 59°47' E 028°24'0 0.0
2017-Jan-11 20:33N 59°47' E 028°24'0 0.0
2017-Jan-11 19:33N 59°47' E 028°24'0 0.0
2017-Jan-11 18:33N 59°47' E 028°24'0 0.0
2017-Jan-11 17:33N 59°47' E 028°24'0 0.0
2017-Jan-11 16:32N 59°47' E 028°24'0 0.0
2017-Jan-11 15:32N 59°47' E 028°24'1 0.5
2017-Jan-11 13:33N 59°46' E 028°24'4 0.5
2017-Jan-11 04:27N 59°42' E 028°22'0 0.0
2017-Jan-10 23:12N 59°42' E 028°22'0 0.0
2017-Jan-10 22:31N 59°42' E 028°22'0 0.0
2017-Jan-10 20:07N 59°42' E 028°22'0 0.0
2017-Jan-10 14:25N 59°42' E 028°22'0 0.0
2017-Jan-10 11:30N 59°42' E 028°22'0 0.0
2017-Jan-10 04:19N 59°42' E 028°22'0 0.1
2017-Jan-10 02:23N 59°42' E 028°21'0 0.0
2017-Jan-10 01:33N 59°42' E 028°21'9 9.0
2017-Jan-10 00:33N 59°50' E 028°26'1110.7
2017-Jan-09 23:33N 59°60' E 028°35'7 6.9
2017-Jan-09 22:33N 60°03' E 028°47'7 6.5
2017-Jan-09 21:25N 60°03' E 029°02'18 8.0
2017-Jan-09 19:10N 60°00' E 029°38'6 8.4
2017-Jan-09 18:31N 59°57' E 029°47'2 1.5
2017-Jan-09 17:24N 59°56' E 029°46'0 0.0
2017-Jan-09 16:33N 59°56' E 029°46'0 0.0
2017-Jan-09 15:33N 59°56' E 029°46'0 0.0
2017-Jan-09 14:33N 59°56' E 029°46'0 0.0
2017-Jan-09 13:33N 59°56' E 029°46'0 0.0
2017-Jan-09 12:33N 59°56' E 029°46'0 0.0
2017-Jan-09 11:33N 59°56' E 029°46'4 4.4
2017-Jan-09 10:34N 59°56' E 029°55'9 8.6
2017-Jan-09 09:34N 59°53' E 030°11'1 1.1
2017-Jan-09 08:33N 59°53' E 030°13'0 0.4
2017-Jan-09 07:34N 59°53' E 030°13'0 0.0
2017-Jan-09 06:34N 59°53' E 030°13'  
Track history (hours):
 
Tides and Currents Weather Stations Pressure Air Temp Water Temp Dewpoint Dewpoint Depression Visibility Wind Speed Wind Dir Waves Ship Positions

Gazpromneft East

Last reported at 2017-Jan-19 06:33 UTC. Time now 2017-Jan-19 06:42 UTC.
Position N 59°53' E 030°13'.

Length 79 m; draft 4 m.

Type: Tanker. MMSI: 273335320.

Date/timePositionNaut miles runAvg speedWind from/ knotsBaromVisibWave heightAir tempDewpointWater temp
2017-Jan-19 06:33N 59°53' E 030°13'2 1.7
2017-Jan-19 05:33N 59°55' E 030°14'0 0.0
2017-Jan-19 04:33N 59°55' E 030°14'0 0.0
2017-Jan-19 03:33N 59°55' E 030°14'0 0.0
2017-Jan-19 02:33N 59°55' E 030°14'0 0.0
2017-Jan-19 01:33N 59°55' E 030°14'0 0.0
2017-Jan-19 00:33N 59°55' E 030°14'0 0.0
2017-Jan-18 23:33N 59°55' E 030°14'0 0.0
2017-Jan-18 22:33N 59°55' E 030°14'0 0.0
2017-Jan-18 21:33N 59°55' E 030°14'0 0.0
2017-Jan-18 20:33N 59°55' E 030°14'0 0.0
2017-Jan-18 19:33N 59°55' E 030°14'0 0.1
2017-Jan-18 18:34N 59°55' E 030°14'2 1.9
2017-Jan-18 17:33N 59°53' E 030°13'0 0.0
2017-Jan-18 16:33N 59°53' E 030°13'0 0.0
2017-Jan-18 15:33N 59°53' E 030°13'6 6.1
2017-Jan-18 14:33N 59°55' E 030°02'8 7.6
2017-Jan-18 13:33N 59°56' E 029°47'0 0.4
2017-Jan-18 12:27N 59°56' E 029°46'0 0.0
2017-Jan-18 09:32N 59°56' E 029°46'0 0.0
2017-Jan-18 08:29N 59°56' E 029°46'0 0.0
2017-Jan-18 07:33N 59°56' E 029°46'0 0.0
2017-Jan-18 06:33N 59°56' E 029°46'0 0.0
2017-Jan-18 05:33N 59°56' E 029°46'0 0.0
2017-Jan-18 03:25N 59°56' E 029°46'0 0.0
2017-Jan-18 02:32N 59°56' E 029°46'0 0.1
2017-Jan-17 23:33N 59°56' E 029°47'6 6.3
2017-Jan-17 22:33N 59°55' E 029°59'7 7.0
2017-Jan-17 21:33N 59°53' E 030°12'1 0.6
2017-Jan-17 20:33N 59°53' E 030°13'0 0.0
2017-Jan-17 19:33N 59°53' E 030°13'0 0.0
2017-Jan-17 18:33N 59°53' E 030°13'0 0.0
2017-Jan-17 17:33N 59°53' E 030°13'0 0.0
2017-Jan-17 16:33N 59°53' E 030°13'0 0.0
2017-Jan-17 15:33N 59°53' E 030°13'0 0.0
2017-Jan-17 14:33N 59°53' E 030°13'0 0.0
2017-Jan-17 13:33N 59°53' E 030°13'0 0.1
2017-Jan-17 12:33N 59°53' E 030°13'0 0.0
2017-Jan-17 11:30N 59°53' E 030°13'0 0.0
2017-Jan-17 10:31N 59°53' E 030°13'0 0.1
2017-Jan-17 09:31N 59°53' E 030°13'0 0.0
2017-Jan-17 08:32N 59°53' E 030°13'3 2.8
2017-Jan-17 07:33N 59°54' E 030°08'9 9.2
2017-Jan-17 06:34N 59°57' E 029°51'2 0.3
2017-Jan-17 00:33N 59°58' E 029°47'7 7.0
2017-Jan-16 23:33N 59°55' E 030°00'6 6.3
2017-Jan-16 22:33N 59°53' E 030°12'1 0.7
2017-Jan-16 21:33N 59°53' E 030°13'0 0.0
2017-Jan-16 20:33N 59°53' E 030°13'0 0.0
2017-Jan-16 19:33N 59°53' E 030°13'0 0.0
2017-Jan-16 18:33N 59°53' E 030°13'0 0.0
2017-Jan-16 17:33N 59°53' E 030°13'0 0.0
2017-Jan-16 16:33N 59°53' E 030°13'0 0.0
2017-Jan-16 15:33N 59°53' E 030°13'0 0.0
2017-Jan-16 14:33N 59°53' E 030°13'1 1.0
2017-Jan-16 13:33N 59°53' E 030°12'0 0.4
2017-Jan-16 12:33N 59°53' E 030°11'0 0.0
2017-Jan-16 11:33N 59°53' E 030°11'0 0.0
2017-Jan-16 10:33N 59°53' E 030°11'0 0.0
2017-Jan-16 09:33N 59°53' E 030°11'1 1.3
2017-Jan-16 08:33N 59°53' E 030°13'0 0.0
2017-Jan-16 07:33N 59°53' E 030°13'0 0.0
2017-Jan-16 06:33N 59°53' E 030°13'0 0.0
2017-Jan-16 05:33N 59°53' E 030°13'0 0.0
2017-Jan-16 04:33N 59°53' E 030°13'0 0.0
2017-Jan-16 03:33N 59°53' E 030°13'0 0.0
2017-Jan-16 02:33N 59°53' E 030°13'0 0.0
2017-Jan-16 01:33N 59°53' E 030°13'0 0.0
2017-Jan-16 00:33N 59°53' E 030°13'0 0.0
2017-Jan-15 23:33N 59°53' E 030°13'0 0.0
2017-Jan-15 22:33N 59°53' E 030°13'0 0.0
2017-Jan-15 21:33N 59°53' E 030°13'0 0.0
2017-Jan-15 20:33N 59°53' E 030°13'0 0.1
2017-Jan-15 19:33N 59°53' E 030°13'0 0.0
2017-Jan-15 18:33N 59°53' E 030°13'0 0.0
2017-Jan-15 17:33N 59°53' E 030°13'0 0.0
2017-Jan-15 16:33N 59°53' E 030°13'0 0.0
2017-Jan-15 15:33N 59°53' E 030°13'0 0.0
2017-Jan-15 14:33N 59°53' E 030°13'0 0.0
2017-Jan-15 13:33N 59°53' E 030°13'0 0.0
2017-Jan-15 12:33N 59°53' E 030°13'0 0.0
2017-Jan-15 11:33N 59°53' E 030°13'1 0.5
2017-Jan-15 10:33N 59°54' E 030°14'0 0.0
2017-Jan-15 09:33N 59°54' E 030°14'0 0.0
2017-Jan-15 08:33N 59°54' E 030°14'0 0.0
2017-Jan-15 07:33N 59°54' E 030°14'0 0.0
2017-Jan-15 06:33N 59°54' E 030°14'0 0.0
2017-Jan-15 05:33N 59°54' E 030°14'0 0.0
2017-Jan-15 04:33N 59°54' E 030°14'0 0.0
2017-Jan-15 03:33N 59°54' E 030°14'0 0.0
2017-Jan-15 02:33N 59°54' E 030°14'0 0.0
2017-Jan-15 01:33N 59°54' E 030°14'0 0.0
2017-Jan-15 00:33N 59°54' E 030°14'1 1.3
2017-Jan-14 23:33N 59°53' E 030°12'1 0.5
2017-Jan-14 22:33N 59°52' E 030°12'0 0.0
2017-Jan-14 21:33N 59°52' E 030°12'0 0.0
2017-Jan-14 20:33N 59°52' E 030°12'0 0.0
2017-Jan-14 19:33N 59°52' E 030°12'0 0.0
2017-Jan-14 18:34N 59°52' E 030°12'1 1.3
2017-Jan-14 17:34N 59°53' E 030°11'8 8.1
2017-Jan-14 16:33N 59°56' E 029°55'5 4.6
2017-Jan-14 15:33N 59°56' E 029°46'0 0.0
2017-Jan-14 14:20N 59°56' E 029°46'0 0.0
2017-Jan-14 13:29N 59°56' E 029°46'0 0.0
2017-Jan-14 12:32N 59°56' E 029°46'0 0.0
2017-Jan-14 11:13N 59°56' E 029°46'1 1.0
2017-Jan-14 10:33N 59°56' E 029°47'7 6.8
2017-Jan-14 09:34N 59°55' E 030°00'7 7.0
2017-Jan-14 08:33N 59°53' E 030°14'0 0.0
2017-Jan-14 07:33N 59°53' E 030°13'0 0.0
2017-Jan-14 06:33N 59°53' E 030°13'0 0.0
2017-Jan-14 05:33N 59°53' E 030°13'0 0.0
2017-Jan-14 04:33N 59°53' E 030°13'0 0.0
2017-Jan-14 03:33N 59°53' E 030°13'1 0.3
2017-Jan-13 23:33N 59°53' E 030°11'0 0.0
2017-Jan-13 22:33N 59°53' E 030°11'0 0.0
2017-Jan-13 21:33N 59°53' E 030°11'0 0.0
2017-Jan-13 20:33N 59°53' E 030°11'0 0.0
2017-Jan-13 19:33N 59°53' E 030°11'0 0.0
2017-Jan-13 18:33N 59°53' E 030°11'0 0.0
2017-Jan-13 17:33N 59°53' E 030°11'0 0.0
2017-Jan-13 16:33N 59°53' E 030°11'0 0.0
2017-Jan-13 15:33N 59°53' E 030°11'0 0.0
2017-Jan-13 14:33N 59°53' E 030°11'1 1.1
2017-Jan-13 13:33N 59°53' E 030°13'0 0.0
2017-Jan-13 12:33N 59°53' E 030°13'0 0.0
2017-Jan-13 11:33N 59°53' E 030°13'0 0.0
2017-Jan-13 10:33N 59°53' E 030°13'0 0.0
2017-Jan-13 09:33N 59°53' E 030°13'0 0.0
2017-Jan-13 08:33N 59°53' E 030°13'0 0.0
2017-Jan-13 07:33N 59°53' E 030°13'0 0.0
2017-Jan-13 06:33N 59°53' E 030°13'0 0.1
2017-Jan-13 05:33N 59°53' E 030°13'4 4.4
2017-Jan-13 04:33N 59°54' E 030°05'8 7.8
2017-Jan-13 03:33N 59°57' E 029°50'24 2.4
2017-Jan-12 17:29N 60°01' E 029°04'3 3.4
2017-Jan-12 16:34N 60°01' E 028°58'5 5.2
2017-Jan-12 15:33N 60°01' E 028°47'1211.8
2017-Jan-12 14:33N 59°53' E 028°30'7 6.5
2017-Jan-12 13:33N 59°47' E 028°25'0 0.0
2017-Jan-12 12:33N 59°47' E 028°25'0 0.0
2017-Jan-12 11:33N 59°47' E 028°25'0 0.0
2017-Jan-12 10:33N 59°47' E 028°25'0 0.0
2017-Jan-12 09:33N 59°47' E 028°25'0 0.0
2017-Jan-12 08:33N 59°47' E 028°25'0 0.0
2017-Jan-12 07:33N 59°47' E 028°25'0 0.0
2017-Jan-12 06:33N 59°47' E 028°25'0 0.0
2017-Jan-12 05:33N 59°47' E 028°25'0 0.0
2017-Jan-12 04:33N 59°47' E 028°25'0 0.0
2017-Jan-12 03:33N 59°47' E 028°25'0 0.0
2017-Jan-12 02:33N 59°47' E 028°25'0 0.0
2017-Jan-12 01:33N 59°47' E 028°25'0 0.0
2017-Jan-12 00:33N 59°47' E 028°25'1 0.5
2017-Jan-11 23:33N 59°47' E 028°24'0 0.0
2017-Jan-11 22:33N 59°47' E 028°24'0 0.0
2017-Jan-11 21:33N 59°47' E 028°24'0 0.0
2017-Jan-11 20:33N 59°47' E 028°24'0 0.0
2017-Jan-11 19:33N 59°47' E 028°24'0 0.0
2017-Jan-11 18:33N 59°47' E 028°24'0 0.0
2017-Jan-11 17:33N 59°47' E 028°24'0 0.0
2017-Jan-11 16:32N 59°47' E 028°24'0 0.0
2017-Jan-11 15:32N 59°47' E 028°24'1 0.5
2017-Jan-11 13:33N 59°46' E 028°24'4 0.5
2017-Jan-11 04:27N 59°42' E 028°22'0 0.0
2017-Jan-10 23:12N 59°42' E 028°22'0 0.0
2017-Jan-10 22:31N 59°42' E 028°22'0 0.0
2017-Jan-10 20:07N 59°42' E 028°22'0 0.0
2017-Jan-10 14:25N 59°42' E 028°22'0 0.0
2017-Jan-10 11:30N 59°42' E 028°22'0 0.0
2017-Jan-10 04:19N 59°42' E 028°22'0 0.1
2017-Jan-10 02:23N 59°42' E 028°21'0 0.0
2017-Jan-10 01:33N 59°42' E 028°21'9 9.0
2017-Jan-10 00:33N 59°50' E 028°26'1110.7
2017-Jan-09 23:33N 59°60' E 028°35'7 6.9
2017-Jan-09 22:33N 60°03' E 028°47'7 6.5
2017-Jan-09 21:25N 60°03' E 029°02'18 8.0
2017-Jan-09 19:10N 60°00' E 029°38'6 8.4
2017-Jan-09 18:31N 59°57' E 029°47'2 1.5
2017-Jan-09 17:24N 59°56' E 029°46'0 0.0
2017-Jan-09 16:33N 59°56' E 029°46'0 0.0
2017-Jan-09 15:33N 59°56' E 029°46'0 0.0
2017-Jan-09 14:33N 59°56' E 029°46'0 0.0
2017-Jan-09 13:33N 59°56' E 029°46'0 0.0
2017-Jan-09 12:33N 59°56' E 029°46'0 0.0
2017-Jan-09 11:33N 59°56' E 029°46'4 4.4
2017-Jan-09 10:34N 59°56' E 029°55'9 8.6
2017-Jan-09 09:34N 59°53' E 030°11'1 1.1
2017-Jan-09 08:33N 59°53' E 030°13'0 0.4
2017-Jan-09 07:34N 59°53' E 030°13'0 0.0
2017-Jan-09 06:34N 59°53' E 030°13'  

Dump ship's entire track history